createdAt,value
2018-05-02T00:00:59.533Z,0.00
2018-05-02T00:01:59.533Z,0.00
2018-05-02T00:02:59.522Z,0.00
2018-05-02T00:03:59.515Z,0.00
2018-05-02T00:04:59.512Z,0.00
2018-05-02T00:05:59.505Z,0.00
2018-05-02T00:06:59.503Z,0.00
2018-05-02T00:07:59.495Z,0.00
2018-05-02T00:08:59.490Z,0.00
2018-05-02T00:09:59.484Z,0.00
2018-05-02T00:10:59.479Z,0.00
2018-05-02T00:11:59.476Z,0.00
2018-05-02T00:12:59.465Z,0.00
2018-05-02T00:13:59.462Z,0.00
2018-05-02T00:14:59.456Z,0.00
2018-05-02T00:15:59.450Z,0.00
2018-05-02T00:16:59.445Z,0.00
2018-05-02T00:17:59.495Z,0.00
2018-05-02T00:18:59.433Z,0.00
2018-05-02T00:19:59.428Z,0.00
2018-05-02T00:20:59.426Z,0.00
2018-05-02T00:21:59.419Z,0.00
2018-05-02T00:22:59.412Z,0.00
2018-05-02T00:23:59.406Z,0.00
2018-05-02T00:24:59.399Z,0.00
2018-05-02T00:25:59.396Z,0.00
2018-05-02T00:26:59.391Z,0.00
2018-05-02T00:27:59.383Z,0.00
2018-05-02T00:28:59.377Z,0.00
2018-05-02T00:29:59.373Z,0.00
2018-05-02T00:30:59.365Z,0.00
2018-05-02T00:31:59.364Z,0.00
2018-05-02T00:32:59.355Z,0.00
2018-05-02T00:33:59.429Z,0.00
2018-05-02T00:34:59.343Z,0.00
2018-05-02T00:35:59.343Z,0.00
2018-05-02T00:36:59.334Z,0.00
2018-05-02T00:37:59.330Z,0.00
2018-05-02T00:38:59.321Z,0.00
2018-05-02T00:39:59.317Z,0.00
2018-05-02T00:40:59.312Z,0.00
2018-05-02T00:41:59.305Z,0.00
2018-05-02T00:42:59.299Z,0.00
2018-05-02T00:43:59.293Z,0.00
2018-05-02T00:44:59.294Z,0.00
2018-05-02T00:45:59.284Z,0.00
2018-05-02T00:46:59.277Z,0.00
2018-05-02T00:47:59.271Z,0.00
2018-05-02T00:48:59.268Z,0.00
2018-05-02T00:49:59.261Z,0.00
2018-05-02T00:50:59.327Z,0.00
2018-05-02T00:51:59.249Z,0.00
2018-05-02T00:52:59.244Z,0.00
2018-05-02T00:53:59.239Z,0.00
2018-05-02T00:54:59.232Z,0.00
2018-05-02T00:55:59.226Z,0.00
2018-05-02T00:56:59.220Z,0.00
2018-05-02T00:57:59.215Z,0.00
2018-05-02T00:58:59.212Z,0.00
2018-05-02T00:59:59.207Z,0.00
2018-05-02T01:00:59.200Z,0.00
2018-05-02T01:01:59.193Z,0.00
2018-05-02T01:02:59.186Z,0.00
2018-05-02T01:03:59.186Z,0.00
2018-05-02T01:04:59.176Z,0.00
2018-05-02T01:05:59.165Z,0.00
2018-05-02T01:06:59.234Z,0.00
2018-05-02T01:07:59.161Z,0.00
2018-05-02T01:08:59.152Z,0.00
2018-05-02T01:09:59.147Z,0.00
2018-05-02T01:10:59.139Z,0.00
2018-05-02T01:11:59.136Z,0.00
2018-05-02T01:12:59.130Z,0.00
2018-05-02T01:13:59.124Z,0.00
2018-05-02T01:14:59.117Z,0.00
2018-05-02T01:15:59.109Z,0.00
2018-05-02T01:16:59.108Z,0.00
2018-05-02T01:17:59.101Z,0.00
2018-05-02T01:18:59.092Z,0.00
2018-05-02T01:19:59.088Z,0.00
2018-05-02T01:20:59.084Z,0.00
2018-05-02T01:21:59.079Z,0.00
2018-05-02T01:22:59.072Z,0.00
2018-05-02T01:23:59.065Z,0.00
2018-05-02T01:24:59.060Z,0.00
2018-05-02T01:25:59.054Z,0.00
2018-05-02T01:26:59.049Z,0.00
2018-05-02T01:27:59.046Z,0.00
2018-05-02T01:28:59.040Z,0.00
2018-05-02T01:29:59.031Z,0.00
2018-05-02T01:30:59.022Z,0.00
2018-05-02T01:31:59.023Z,0.00
2018-05-02T01:32:59.014Z,0.00
2018-05-02T01:33:59.008Z,0.00
2018-05-02T01:34:58.998Z,0.00
2018-05-02T01:35:58.996Z,0.00
2018-05-02T01:36:58.990Z,0.00
2018-05-02T01:37:58.986Z,0.00
2018-05-02T01:38:58.974Z,0.00
2018-05-02T01:39:58.975Z,0.00
2018-05-02T01:40:58.967Z,0.00
2018-05-02T01:41:58.967Z,0.00
2018-05-02T01:42:58.956Z,0.00
2018-05-02T01:43:58.950Z,0.00
2018-05-02T01:44:58.943Z,0.00
2018-05-02T01:45:58.938Z,0.00
2018-05-02T01:46:58.931Z,0.00
2018-05-02T01:47:58.927Z,0.00
2018-05-02T01:48:58.918Z,0.00
2018-05-02T01:49:58.915Z,0.00
2018-05-02T01:50:58.908Z,0.00
2018-05-02T01:51:58.900Z,0.00
2018-05-02T01:52:58.898Z,0.00
2018-05-02T01:53:58.889Z,0.00
2018-05-02T01:54:58.882Z,0.00
2018-05-02T01:55:58.879Z,0.00
2018-05-02T01:56:58.871Z,0.00
2018-05-02T01:57:58.866Z,0.00
2018-05-02T01:58:58.863Z,0.00
2018-05-02T01:59:58.854Z,0.00
2018-05-02T02:00:58.849Z,0.00
2018-05-02T02:01:58.840Z,0.00
2018-05-02T02:02:58.836Z,0.00
2018-05-02T02:03:58.827Z,0.00
2018-05-02T02:04:58.823Z,0.00
2018-05-02T02:05:58.819Z,0.00
2018-05-02T02:06:58.809Z,0.00
2018-05-02T02:07:58.803Z,0.00
2018-05-02T02:08:58.796Z,0.00
2018-05-02T02:09:58.792Z,0.00
2018-05-02T02:10:58.784Z,0.00
2018-05-02T02:11:58.780Z,0.00
2018-05-02T02:12:58.777Z,0.00
2018-05-02T02:13:58.768Z,0.00
2018-05-02T02:14:58.760Z,0.00
2018-05-02T02:15:58.755Z,0.00
2018-05-02T02:16:58.748Z,0.00
2018-05-02T02:17:58.747Z,0.00
2018-05-02T02:18:58.731Z,0.00
2018-05-02T02:19:58.733Z,0.00
2018-05-02T02:20:58.726Z,0.00
2018-05-02T02:21:58.720Z,0.00
2018-05-02T02:22:58.714Z,0.00
2018-05-02T02:23:58.707Z,0.00
2018-05-02T02:24:58.700Z,0.00
2018-05-02T02:25:58.694Z,0.00
2018-05-02T02:26:58.686Z,0.00
2018-05-02T02:27:58.684Z,0.00
2018-05-02T02:28:58.677Z,0.00
2018-05-02T02:29:58.676Z,0.00
2018-05-02T02:30:58.663Z,0.00
2018-05-02T02:31:58.660Z,0.00
2018-05-02T02:32:58.649Z,0.00
2018-05-02T02:33:58.751Z,0.00
2018-05-02T02:34:58.639Z,0.00
2018-05-02T02:35:58.633Z,0.00
2018-05-02T02:36:58.623Z,0.00
2018-05-02T02:37:58.618Z,0.00
2018-05-02T02:38:58.609Z,0.00
2018-05-02T02:39:58.607Z,0.00
2018-05-02T02:40:58.599Z,0.00
2018-05-02T02:41:58.600Z,0.00
2018-05-02T02:42:58.587Z,0.00
2018-05-02T02:43:58.585Z,0.00
2018-05-02T02:44:58.574Z,0.00
2018-05-02T02:45:58.569Z,0.00
2018-05-02T02:46:58.561Z,0.00
2018-05-02T02:47:58.554Z,0.00
2018-05-02T02:48:58.549Z,0.00
2018-05-02T02:49:58.542Z,0.00
2018-05-02T02:50:58.535Z,0.00
2018-05-02T02:51:58.528Z,0.00
2018-05-02T02:52:58.531Z,0.00
2018-05-02T02:53:58.517Z,0.00
2018-05-02T02:54:58.507Z,0.00
2018-05-02T02:55:58.502Z,0.00
2018-05-02T02:56:58.496Z,0.00
2018-05-02T02:57:58.488Z,0.00
2018-05-02T02:58:58.483Z,0.00
2018-05-02T02:59:58.478Z,0.00
2018-05-02T03:00:58.471Z,0.00
2018-05-02T03:01:58.462Z,0.00
2018-05-02T03:02:58.463Z,0.00
2018-05-02T03:03:58.457Z,0.00
2018-05-02T03:04:58.447Z,0.00
2018-05-02T03:05:58.439Z,0.00
2018-05-02T03:06:58.433Z,0.00
2018-05-02T03:07:58.424Z,0.00
2018-05-02T03:08:58.421Z,0.00
2018-05-02T03:09:58.410Z,0.00
2018-05-02T03:10:58.410Z,0.00
2018-05-02T03:11:58.399Z,0.00
2018-05-02T03:12:58.394Z,0.00
2018-05-02T03:13:58.384Z,0.00
2018-05-02T03:14:58.380Z,0.00
2018-05-02T03:15:58.372Z,0.00
2018-05-02T03:16:58.367Z,0.00
2018-05-02T03:17:58.358Z,0.00
2018-05-02T03:18:58.353Z,0.00
2018-05-02T03:19:58.348Z,0.00
2018-05-02T03:20:58.339Z,0.00
2018-05-02T03:21:58.330Z,0.00
2018-05-02T03:22:58.326Z,0.00
2018-05-02T03:23:58.316Z,0.00
2018-05-02T03:24:58.312Z,0.00
2018-05-02T03:25:58.305Z,0.00
2018-05-02T03:26:58.373Z,0.00
2018-05-02T03:27:58.294Z,0.00
2018-05-02T03:28:58.287Z,0.00
2018-05-02T03:29:58.279Z,0.00
2018-05-02T03:30:58.275Z,0.00
2018-05-02T03:31:58.268Z,0.00
2018-05-02T03:32:58.260Z,0.00
2018-05-02T03:33:58.250Z,5.63
2018-05-02T03:34:58.247Z,5.63
2018-05-02T03:35:58.241Z,5.63
2018-05-02T03:36:58.235Z,5.63
2018-05-02T03:37:58.230Z,5.63
2018-05-02T03:38:58.220Z,5.63
2018-05-02T03:39:58.211Z,5.63
2018-05-02T03:40:58.226Z,5.63
2018-05-02T03:41:58.201Z,11.25
2018-05-02T03:42:58.193Z,11.25
2018-05-02T03:43:58.187Z,11.25
2018-05-02T03:44:58.178Z,11.25
2018-05-02T03:45:58.174Z,11.25
2018-05-02T03:46:58.164Z,11.25
2018-05-02T03:47:58.161Z,16.88
2018-05-02T03:48:58.153Z,16.88
2018-05-02T03:49:58.147Z,16.88
2018-05-02T03:50:58.141Z,16.88
2018-05-02T03:51:58.133Z,16.88
2018-05-02T03:52:58.175Z,22.50
2018-05-02T03:53:58.119Z,22.50
2018-05-02T03:54:58.114Z,22.50
2018-05-02T03:55:58.106Z,22.50
2018-05-02T03:56:58.109Z,22.50
2018-05-02T03:57:58.098Z,28.13
2018-05-02T03:58:58.088Z,28.13
2018-05-02T03:59:58.081Z,28.13
2018-05-02T04:00:58.078Z,33.75
2018-05-02T04:01:58.069Z,33.75
2018-05-02T04:02:58.063Z,39.38
2018-05-02T04:03:58.054Z,39.38
2018-05-02T04:04:58.047Z,39.38
2018-05-02T04:05:58.043Z,39.38
2018-05-02T04:06:58.037Z,45.00
2018-05-02T04:07:58.026Z,45.00
2018-05-02T04:08:58.027Z,45.00
2018-05-02T04:09:58.015Z,45.00
2018-05-02T04:10:58.010Z,45.00
2018-05-02T04:11:58.000Z,45.00
2018-05-02T04:12:57.995Z,50.63
2018-05-02T04:13:57.988Z,50.63
2018-05-02T04:14:57.985Z,50.63
2018-05-02T04:15:57.974Z,50.63
2018-05-02T04:16:57.970Z,50.63
2018-05-02T04:17:57.964Z,56.25
2018-05-02T04:18:57.958Z,61.88
2018-05-02T04:19:57.948Z,61.88
2018-05-02T04:20:57.943Z,67.50
2018-05-02T04:21:57.938Z,67.50
2018-05-02T04:22:57.930Z,67.50
2018-05-02T04:23:57.922Z,73.13
2018-05-02T04:24:57.919Z,73.13
2018-05-02T04:25:57.922Z,73.13
2018-05-02T04:26:57.905Z,73.13
2018-05-02T04:27:57.899Z,78.75
2018-05-02T04:28:57.893Z,78.75
2018-05-02T04:29:57.887Z,84.38
2018-05-02T04:30:57.879Z,84.38
2018-05-02T04:31:57.882Z,84.38
2018-05-02T04:32:57.868Z,90.00
2018-05-02T04:33:57.862Z,95.63
2018-05-02T04:34:57.853Z,101.25
2018-05-02T04:35:57.862Z,106.88
2018-05-02T04:36:57.842Z,112.50
2018-05-02T04:37:57.837Z,118.13
2018-05-02T04:38:57.831Z,112.50
2018-05-02T04:39:57.828Z,118.13
2018-05-02T04:40:57.898Z,118.13
2018-05-02T04:41:57.815Z,118.13
2018-05-02T04:42:57.805Z,118.13
2018-05-02T04:43:57.801Z,123.75
2018-05-02T04:44:57.796Z,118.13
2018-05-02T04:45:57.788Z,118.13
2018-05-02T04:46:57.780Z,123.75
2018-05-02T04:47:57.779Z,123.75
2018-05-02T04:48:57.768Z,135.00
2018-05-02T04:49:57.764Z,129.38
2018-05-02T04:50:57.757Z,146.25
2018-05-02T04:51:57.752Z,151.88
2018-05-02T04:52:57.748Z,157.50
2018-05-02T04:53:57.742Z,157.50
2018-05-02T04:54:57.733Z,163.13
2018-05-02T04:55:57.734Z,157.50
2018-05-02T04:56:57.725Z,157.50
2018-05-02T04:57:57.729Z,157.50
2018-05-02T04:58:57.713Z,168.75
2018-05-02T04:59:57.708Z,174.38
2018-05-02T05:00:57.705Z,191.25
2018-05-02T05:01:57.722Z,208.13
2018-05-02T05:02:57.696Z,225.00
2018-05-02T05:03:57.690Z,230.63
2018-05-02T05:04:57.688Z,247.50
2018-05-02T05:05:57.681Z,258.75
2018-05-02T05:06:57.676Z,258.75
2018-05-02T05:07:57.670Z,264.38
2018-05-02T05:08:57.669Z,275.63
2018-05-02T05:09:57.661Z,281.25
2018-05-02T05:10:57.656Z,281.25
2018-05-02T05:11:57.654Z,275.63
2018-05-02T05:12:57.646Z,275.63
2018-05-02T05:13:57.645Z,270.00
2018-05-02T05:14:57.640Z,270.00
2018-05-02T05:15:57.633Z,275.63
2018-05-02T05:16:57.634Z,270.00
2018-05-02T05:17:57.624Z,270.00
2018-05-02T05:18:57.624Z,270.00
2018-05-02T05:19:57.621Z,270.00
2018-05-02T05:20:57.618Z,264.38
2018-05-02T05:21:57.620Z,258.75
2018-05-02T05:22:57.611Z,258.75
2018-05-02T05:23:57.609Z,258.75
2018-05-02T05:24:57.608Z,258.75
2018-05-02T05:25:57.605Z,264.38
2018-05-02T05:26:57.602Z,270.00
2018-05-02T05:27:57.602Z,270.00
2018-05-02T05:28:57.594Z,202.50
2018-05-02T05:29:57.595Z,174.38
2018-05-02T05:30:57.598Z,174.38
2018-05-02T05:31:57.590Z,185.63
2018-05-02T05:32:57.591Z,219.38
2018-05-02T05:33:57.595Z,241.88
2018-05-02T05:34:57.585Z,241.88
2018-05-02T05:35:57.588Z,236.25
2018-05-02T05:36:57.580Z,236.25
2018-05-02T05:37:57.577Z,236.25
2018-05-02T05:38:57.580Z,247.50
2018-05-02T05:39:57.574Z,270.00
2018-05-02T05:40:57.573Z,286.88
2018-05-02T05:41:57.567Z,264.38
2018-05-02T05:42:57.567Z,241.88
2018-05-02T05:43:57.569Z,230.63
2018-05-02T05:44:57.564Z,219.38
2018-05-02T05:45:57.564Z,219.38
2018-05-02T05:46:57.559Z,219.38
2018-05-02T05:47:57.558Z,225.00
2018-05-02T05:48:57.554Z,230.63
2018-05-02T05:49:57.553Z,241.88
2018-05-02T05:50:57.552Z,253.13
2018-05-02T05:51:57.545Z,253.13
2018-05-02T05:52:57.544Z,264.38
2018-05-02T05:53:57.570Z,281.25
2018-05-02T05:54:57.541Z,264.38
2018-05-02T05:55:57.541Z,270.00
2018-05-02T05:56:57.537Z,270.00
2018-05-02T05:57:57.538Z,270.00
2018-05-02T05:58:57.531Z,275.63
2018-05-02T05:59:57.527Z,275.63
2018-05-02T06:00:57.524Z,281.25
2018-05-02T06:01:57.525Z,275.63
2018-05-02T06:02:57.517Z,275.63
2018-05-02T06:03:57.520Z,281.25
2018-05-02T06:04:57.514Z,286.88
2018-05-02T06:05:57.511Z,292.50
2018-05-02T06:06:57.512Z,292.50
2018-05-02T06:07:57.506Z,298.13
2018-05-02T06:08:57.505Z,298.13
2018-05-02T06:09:57.505Z,303.75
2018-05-02T06:10:57.497Z,309.38
2018-05-02T06:11:57.495Z,309.38
2018-05-02T06:12:57.490Z,309.38
2018-05-02T06:13:57.489Z,309.38
2018-05-02T06:14:57.488Z,315.00
2018-05-02T06:15:57.480Z,320.63
2018-05-02T06:16:57.480Z,331.88
2018-05-02T06:17:57.477Z,326.25
2018-05-02T06:18:57.473Z,365.63
2018-05-02T06:19:57.471Z,331.88
2018-05-02T06:20:57.470Z,331.88
2018-05-02T06:21:57.551Z,360.00
2018-05-02T06:22:57.470Z,331.88
2018-05-02T06:23:57.460Z,343.13
2018-05-02T06:24:57.458Z,354.38
2018-05-02T06:25:57.456Z,354.38
2018-05-02T06:26:57.456Z,365.63
2018-05-02T06:27:57.448Z,365.63
2018-05-02T06:28:57.446Z,382.50
2018-05-02T06:29:57.444Z,388.13
2018-05-02T06:30:57.440Z,376.88
2018-05-02T06:31:57.506Z,382.50
2018-05-02T06:32:57.442Z,421.88
2018-05-02T06:33:57.453Z,365.63
2018-05-02T06:34:57.429Z,365.63
2018-05-02T06:35:57.646Z,371.25
2018-05-02T06:36:57.425Z,388.13
2018-05-02T06:37:57.446Z,376.88
2018-05-02T06:38:57.421Z,388.13
2018-05-02T06:39:57.419Z,376.88
2018-05-02T06:40:57.418Z,393.75
2018-05-02T06:41:57.421Z,382.50
2018-05-02T06:42:57.412Z,388.13
2018-05-02T06:43:57.410Z,388.13
2018-05-02T06:44:57.410Z,399.38
2018-05-02T06:45:57.406Z,433.13
2018-05-02T06:46:57.406Z,421.88
2018-05-02T06:47:57.404Z,433.13
2018-05-02T06:48:57.398Z,416.25
2018-05-02T06:49:57.396Z,427.50
2018-05-02T06:50:57.393Z,466.88
2018-05-02T06:51:57.408Z,444.38
2018-05-02T06:52:57.390Z,433.13
2018-05-02T06:53:57.389Z,438.75
2018-05-02T06:54:57.385Z,450.00
2018-05-02T06:55:57.382Z,450.00
2018-05-02T06:56:57.381Z,461.25
2018-05-02T06:57:57.383Z,466.88
2018-05-02T06:58:57.378Z,472.50
2018-05-02T06:59:57.377Z,483.75
2018-05-02T07:00:57.514Z,466.88
2018-05-02T07:01:57.374Z,461.25
2018-05-02T07:02:57.370Z,495.00
2018-05-02T07:03:57.368Z,500.63
2018-05-02T07:04:57.369Z,478.13
2018-05-02T07:05:57.366Z,489.38
2018-05-02T07:06:57.363Z,500.63
2018-05-02T07:07:57.364Z,562.50
2018-05-02T07:08:57.367Z,545.63
2018-05-02T07:09:57.357Z,551.25
2018-05-02T07:10:57.358Z,517.50
2018-05-02T07:11:57.359Z,545.63
2018-05-02T07:12:57.357Z,556.88
2018-05-02T07:13:57.352Z,618.75
2018-05-02T07:14:57.352Z,945.00
2018-05-02T07:15:57.351Z,697.50
2018-05-02T07:16:57.347Z,607.50
2018-05-02T07:17:57.345Z,618.75
2018-05-02T07:18:57.346Z,821.25
2018-05-02T07:19:57.343Z,675.00
2018-05-02T07:20:57.345Z,708.75
2018-05-02T07:21:57.341Z,888.75
2018-05-02T07:22:57.339Z,866.25
2018-05-02T07:23:57.420Z,703.13
2018-05-02T07:24:57.340Z,731.25
2018-05-02T07:25:57.338Z,843.75
2018-05-02T07:26:57.336Z,742.50
2018-05-02T07:27:57.340Z,776.25
2018-05-02T07:28:57.337Z,810.00
2018-05-02T07:29:57.343Z,984.38
2018-05-02T07:30:57.334Z,838.13
2018-05-02T07:31:57.334Z,765.00
2018-05-02T07:32:57.469Z,753.75
2018-05-02T07:33:57.335Z,883.13
2018-05-02T07:34:57.336Z,916.88
2018-05-02T07:35:57.337Z,843.75
2018-05-02T07:36:57.336Z,725.63
2018-05-02T07:37:57.338Z,731.25
2018-05-02T07:38:57.338Z,759.38
2018-05-02T07:39:57.336Z,843.75
2018-05-02T07:40:57.336Z,871.88
2018-05-02T07:41:57.339Z,849.38
2018-05-02T07:42:57.341Z,787.50
2018-05-02T07:43:57.339Z,832.50
2018-05-02T07:44:57.338Z,838.13
2018-05-02T07:45:57.338Z,781.88
2018-05-02T07:46:57.346Z,871.88
2018-05-02T07:47:57.339Z,810.00
2018-05-02T07:48:57.341Z,911.25
2018-05-02T07:49:57.343Z,776.25
2018-05-02T07:50:57.345Z,815.63
2018-05-02T07:51:57.344Z,815.63
2018-05-02T07:52:57.349Z,658.13
2018-05-02T07:53:57.344Z,776.25
2018-05-02T07:54:57.344Z,669.38
2018-05-02T07:55:57.348Z,675.00
2018-05-02T07:56:57.350Z,669.38
2018-05-02T07:57:57.349Z,871.88
2018-05-02T07:58:57.396Z,838.13
2018-05-02T07:59:57.349Z,956.25
2018-05-02T08:00:57.348Z,967.50
2018-05-02T08:01:57.351Z,821.25
2018-05-02T08:02:57.349Z,1181.25
2018-05-02T08:03:57.352Z,697.50
2018-05-02T08:04:57.355Z,922.50
2018-05-02T08:05:57.364Z,568.13
2018-05-02T08:06:57.352Z,1693.13
2018-05-02T08:07:57.354Z,1085.63
2018-05-02T08:08:57.359Z,810.00
2018-05-02T08:09:57.357Z,860.63
2018-05-02T08:10:57.405Z,866.25
2018-05-02T08:11:57.357Z,697.50
2018-05-02T08:12:57.373Z,714.38
2018-05-02T08:13:57.363Z,675.00
2018-05-02T08:14:57.363Z,832.50
2018-05-02T08:15:57.365Z,725.63
2018-05-02T08:16:57.373Z,708.75
2018-05-02T08:17:57.368Z,624.38
2018-05-02T08:18:57.368Z,613.13
2018-05-02T08:19:57.369Z,528.75
2018-05-02T08:20:57.371Z,556.88
2018-05-02T08:21:57.376Z,528.75
2018-05-02T08:22:57.377Z,545.63
2018-05-02T08:23:57.376Z,652.50
2018-05-02T08:24:57.377Z,1473.75
2018-05-02T08:25:57.377Z,618.75
2018-05-02T08:26:57.403Z,607.50
2018-05-02T08:27:57.385Z,568.13
2018-05-02T08:28:57.383Z,568.13
2018-05-02T08:29:57.384Z,748.13
2018-05-02T08:30:57.382Z,646.88
2018-05-02T08:31:57.389Z,883.13
2018-05-02T08:32:57.420Z,748.13
2018-05-02T08:33:57.388Z,562.50
2018-05-02T08:34:57.389Z,1417.50
2018-05-02T08:35:57.391Z,562.50
2018-05-02T08:36:57.393Z,703.13
2018-05-02T08:37:57.399Z,1023.75
2018-05-02T08:38:57.412Z,1265.63
2018-05-02T08:39:57.393Z,731.25
2018-05-02T08:40:57.400Z,905.63
2018-05-02T08:41:57.404Z,697.50
2018-05-02T08:42:57.403Z,708.75
2018-05-02T08:43:57.405Z,635.63
2018-05-02T08:44:57.407Z,652.50
2018-05-02T08:45:57.409Z,613.13
2018-05-02T08:46:57.413Z,613.13
2018-05-02T08:47:57.411Z,613.13
2018-05-02T08:48:57.416Z,596.25
2018-05-02T08:49:57.463Z,618.75
2018-05-02T08:50:57.415Z,573.75
2018-05-02T08:51:57.414Z,551.25
2018-05-02T08:52:57.419Z,562.50
2018-05-02T08:53:57.422Z,551.25
2018-05-02T08:54:57.422Z,573.75
2018-05-02T08:55:57.423Z,568.13
2018-05-02T08:56:57.425Z,579.38
2018-05-02T08:57:57.426Z,545.63
2018-05-02T08:58:57.421Z,528.75
2018-05-02T08:59:57.427Z,495.00
2018-05-02T09:00:57.429Z,500.63
2018-05-02T09:01:57.436Z,500.63
2018-05-02T09:02:57.429Z,478.13
2018-05-02T09:03:57.432Z,472.50
2018-05-02T09:04:57.432Z,472.50
2018-05-02T09:05:57.434Z,483.75
2018-05-02T09:06:57.435Z,483.75
2018-05-02T09:07:57.435Z,483.75
2018-05-02T09:08:57.516Z,472.50
2018-05-02T09:09:57.438Z,444.38
2018-05-02T09:10:57.437Z,416.25
2018-05-02T09:11:57.440Z,410.63
2018-05-02T09:12:57.440Z,399.38
2018-05-02T09:13:57.440Z,388.13
2018-05-02T09:14:57.442Z,393.75
2018-05-02T09:15:57.442Z,393.75
2018-05-02T09:16:57.442Z,388.13
2018-05-02T09:17:57.444Z,410.63
2018-05-02T09:18:57.505Z,433.13
2018-05-02T09:19:57.445Z,421.88
2018-05-02T09:20:57.446Z,399.38
2018-05-02T09:21:57.446Z,393.75
2018-05-02T09:22:57.496Z,371.25
2018-05-02T09:23:57.447Z,360.00
2018-05-02T09:24:57.448Z,343.13
2018-05-02T09:25:57.449Z,326.25
2018-05-02T09:26:57.448Z,309.38
2018-05-02T09:27:57.449Z,315.00
2018-05-02T09:28:57.450Z,331.88
2018-05-02T09:29:57.450Z,331.88
2018-05-02T09:30:57.450Z,320.63
2018-05-02T09:31:57.454Z,292.50
2018-05-02T09:32:57.452Z,286.88
2018-05-02T09:33:57.454Z,275.63
2018-05-02T09:34:57.452Z,264.38
2018-05-02T09:35:57.496Z,253.13
2018-05-02T09:36:57.452Z,253.13
2018-05-02T09:37:57.455Z,270.00
2018-05-02T09:38:57.453Z,264.38
2018-05-02T09:39:57.452Z,264.38
2018-05-02T09:40:57.455Z,275.63
2018-05-02T09:41:57.458Z,298.13
2018-05-02T09:42:57.501Z,315.00
2018-05-02T09:43:57.453Z,298.13
2018-05-02T09:44:57.449Z,281.25
2018-05-02T09:45:57.456Z,270.00
2018-05-02T09:46:57.454Z,270.00
2018-05-02T09:47:57.455Z,275.63
2018-05-02T09:48:57.458Z,286.88
2018-05-02T09:49:57.455Z,292.50
2018-05-02T09:50:57.456Z,275.63
2018-05-02T09:51:57.464Z,258.75
2018-05-02T09:52:57.456Z,241.88
2018-05-02T09:53:57.461Z,219.38
2018-05-02T09:54:57.457Z,202.50
2018-05-02T09:55:57.454Z,180.00
2018-05-02T09:56:57.455Z,174.38
2018-05-02T09:57:57.454Z,180.00
2018-05-02T09:58:57.456Z,191.25
2018-05-02T09:59:57.457Z,202.50
2018-05-02T10:00:57.487Z,202.50
2018-05-02T10:01:57.453Z,202.50
2018-05-02T10:02:57.452Z,191.25
2018-05-02T10:03:57.451Z,180.00
2018-05-02T10:04:57.452Z,168.75
2018-05-02T10:05:57.454Z,168.75
2018-05-02T10:06:57.449Z,168.75
2018-05-02T10:07:57.449Z,168.75
2018-05-02T10:08:57.453Z,174.38
2018-05-02T10:09:57.453Z,185.63
2018-05-02T10:10:57.447Z,196.88
2018-05-02T10:11:57.449Z,208.13
2018-05-02T10:12:57.450Z,219.38
2018-05-02T10:13:57.447Z,213.75
2018-05-02T10:14:57.448Z,208.13
2018-05-02T10:15:57.446Z,202.50
2018-05-02T10:16:57.450Z,196.88
2018-05-02T10:17:57.446Z,196.88
2018-05-02T10:18:57.443Z,202.50
2018-05-02T10:19:57.445Z,196.88
2018-05-02T10:20:57.447Z,196.88
2018-05-02T10:21:57.446Z,196.88
2018-05-02T10:22:57.489Z,196.88
2018-05-02T10:23:57.443Z,202.50
2018-05-02T10:24:57.441Z,208.13
2018-05-02T10:25:57.442Z,213.75
2018-05-02T10:26:57.440Z,208.13
2018-05-02T10:27:57.435Z,208.13
2018-05-02T10:28:57.439Z,208.13
2018-05-02T10:29:57.436Z,202.50
2018-05-02T10:30:57.437Z,208.13
2018-05-02T10:31:57.481Z,213.75
2018-05-02T10:32:57.434Z,225.00
2018-05-02T10:33:57.434Z,236.25
2018-05-02T10:34:57.434Z,241.88
2018-05-02T10:35:57.432Z,236.25
2018-05-02T10:36:57.452Z,230.63
2018-05-02T10:37:57.430Z,230.63
2018-05-02T10:38:57.428Z,236.25
2018-05-02T10:39:57.428Z,247.50
2018-05-02T10:40:57.428Z,258.75
2018-05-02T10:41:57.421Z,270.00
2018-05-02T10:42:57.435Z,292.50
2018-05-02T10:43:57.423Z,315.00
2018-05-02T10:44:57.422Z,326.25
2018-05-02T10:45:57.419Z,315.00
2018-05-02T10:46:57.420Z,303.75
2018-05-02T10:47:57.421Z,292.50
2018-05-02T10:48:57.419Z,298.13
2018-05-02T10:49:57.417Z,303.75
2018-05-02T10:50:57.418Z,315.00
2018-05-02T10:51:57.417Z,320.63
2018-05-02T10:52:57.529Z,331.88
2018-05-02T10:53:57.415Z,337.50
2018-05-02T10:54:57.413Z,348.75
2018-05-02T10:55:57.491Z,348.75
2018-05-02T10:56:57.411Z,348.75
2018-05-02T10:57:57.411Z,354.38
2018-05-02T10:58:57.407Z,354.38
2018-05-02T10:59:57.412Z,360.00
2018-05-02T11:00:57.407Z,354.38
2018-05-02T11:01:57.407Z,343.13
2018-05-02T11:02:57.403Z,326.25
2018-05-02T11:03:57.405Z,320.63
2018-05-02T11:04:57.655Z,315.00
2018-05-02T11:05:57.413Z,309.38
2018-05-02T11:06:57.404Z,286.88
2018-05-02T11:07:57.402Z,264.38
2018-05-02T11:08:57.401Z,247.50
2018-05-02T11:09:57.399Z,247.50
2018-05-02T11:10:57.399Z,258.75
2018-05-02T11:11:57.399Z,275.63
2018-05-02T11:12:57.395Z,286.88
2018-05-02T11:13:57.406Z,270.00
2018-05-02T11:14:57.397Z,281.25
2018-05-02T11:15:57.424Z,303.75
2018-05-02T11:16:57.395Z,298.13
2018-05-02T11:17:57.401Z,292.50
2018-05-02T11:18:57.396Z,286.88
2018-05-02T11:19:57.393Z,286.88
2018-05-02T11:20:57.393Z,286.88
2018-05-02T11:21:57.424Z,281.25
2018-05-02T11:22:57.401Z,264.38
2018-05-02T11:23:57.396Z,258.75
2018-05-02T11:24:57.393Z,264.38
2018-05-02T11:25:57.397Z,264.38
2018-05-02T11:26:57.391Z,264.38
2018-05-02T11:27:57.392Z,298.13
2018-05-02T11:28:57.557Z,348.75
2018-05-02T11:29:57.393Z,376.88
2018-05-02T11:30:57.388Z,393.75
2018-05-02T11:31:57.388Z,393.75
2018-05-02T11:32:57.388Z,376.88
2018-05-02T11:33:57.391Z,360.00
2018-05-02T11:34:57.386Z,348.75
2018-05-02T11:35:57.388Z,343.13
2018-05-02T11:36:57.387Z,343.13
2018-05-02T11:37:57.394Z,343.13
2018-05-02T11:38:57.388Z,331.88
2018-05-02T11:39:57.384Z,337.50
2018-05-02T11:40:57.386Z,348.75
2018-05-02T11:41:57.387Z,343.13
2018-05-02T11:42:57.387Z,326.25
2018-05-02T11:43:57.386Z,326.25
2018-05-02T11:44:57.385Z,315.00
2018-05-02T11:45:57.386Z,309.38
2018-05-02T11:46:57.389Z,303.75
2018-05-02T11:47:57.387Z,292.50
2018-05-02T11:48:57.384Z,292.50
2018-05-02T11:49:57.384Z,298.13
2018-05-02T11:50:57.383Z,298.13
2018-05-02T11:51:57.384Z,286.88
2018-05-02T11:52:57.384Z,281.25
2018-05-02T11:53:57.385Z,275.63
2018-05-02T11:54:57.383Z,270.00
2018-05-02T11:55:57.382Z,264.38
2018-05-02T11:56:57.387Z,258.75
2018-05-02T11:57:57.383Z,258.75
2018-05-02T11:58:57.381Z,253.13
2018-05-02T11:59:57.382Z,253.13
2018-05-02T12:00:57.383Z,247.50
2018-05-02T12:01:57.390Z,230.63
2018-05-02T12:02:57.380Z,219.38
2018-05-02T12:03:57.381Z,208.13
2018-05-02T12:04:57.382Z,196.88
2018-05-02T12:05:57.383Z,185.63
2018-05-02T12:06:57.381Z,180.00
2018-05-02T12:07:57.380Z,180.00
2018-05-02T12:08:57.384Z,174.38
2018-05-02T12:09:57.381Z,180.00
2018-05-02T12:10:57.376Z,185.63
2018-05-02T12:11:57.394Z,185.63
2018-05-02T12:12:57.445Z,180.00
2018-05-02T12:13:57.377Z,180.00
2018-05-02T12:14:57.375Z,174.38
2018-05-02T12:15:57.376Z,180.00
2018-05-02T12:16:57.377Z,185.63
2018-05-02T12:17:57.374Z,185.63
2018-05-02T12:18:57.493Z,185.63
2018-05-02T12:19:57.373Z,174.38
2018-05-02T12:20:57.373Z,168.75
2018-05-02T12:21:57.397Z,163.13
2018-05-02T12:22:57.374Z,157.50
2018-05-02T12:23:57.371Z,157.50
2018-05-02T12:24:57.369Z,157.50
2018-05-02T12:25:57.370Z,157.50
2018-05-02T12:26:57.370Z,157.50
2018-05-02T12:27:57.369Z,157.50
2018-05-02T12:28:57.373Z,163.13
2018-05-02T12:29:57.368Z,157.50
2018-05-02T12:30:57.363Z,157.50
2018-05-02T12:31:57.392Z,157.50
2018-05-02T12:32:57.369Z,157.50
2018-05-02T12:33:57.363Z,163.13
2018-05-02T12:34:57.362Z,163.13
2018-05-02T12:35:57.363Z,168.75
2018-05-02T12:36:57.363Z,163.13
2018-05-02T12:37:57.362Z,157.50
2018-05-02T12:38:57.361Z,151.88
2018-05-02T12:39:57.360Z,151.88
2018-05-02T12:40:57.363Z,151.88
2018-05-02T12:41:57.360Z,151.88
2018-05-02T12:42:57.357Z,157.50
2018-05-02T12:43:57.357Z,168.75